sensor_id;sensor_type;location;lat;lon;timestamp;P1;durP1;ratioP1;P2;durP2;ratioP2
19889;SDS011;10107;51.198;6.824;2022-10-29T00:02:50;12.82;;;6.65;;
19889;SDS011;10107;51.198;6.824;2022-10-29T00:06:52;13.02;;;6.90;;
19889;SDS011;10107;51.198;6.824;2022-10-29T00:10:55;10.55;;;6.55;;
19889;SDS011;10107;51.198;6.824;2022-10-29T00:15:06;10.15;;;6.63;;
19889;SDS011;10107;51.198;6.824;2022-10-29T00:19:09;12.60;;;6.87;;
19889;SDS011;10107;51.198;6.824;2022-10-29T00:23:11;10.85;;;6.32;;
19889;SDS011;10107;51.198;6.824;2022-10-29T00:27:14;11.52;;;6.93;;
19889;SDS011;10107;51.198;6.824;2022-10-29T00:31:16;10.40;;;6.85;;
19889;SDS011;10107;51.198;6.824;2022-10-29T00:35:19;11.73;;;7.00;;
19889;SDS011;10107;51.198;6.824;2022-10-29T00:39:20;10.05;;;6.75;;
19889;SDS011;10107;51.198;6.824;2022-10-29T00:43:24;9.38;;;6.40;;
19889;SDS011;10107;51.198;6.824;2022-10-29T00:47:27;10.50;;;6.95;;
19889;SDS011;10107;51.198;6.824;2022-10-29T00:51:32;13.25;;;7.15;;
19889;SDS011;10107;51.198;6.824;2022-10-29T00:55:35;6.70;;;4.83;;
19889;SDS011;10107;51.198;6.824;2022-10-29T00:59:38;11.18;;;6.80;;
19889;SDS011;10107;51.198;6.824;2022-10-29T01:03:41;10.05;;;6.68;;
19889;SDS011;10107;51.198;6.824;2022-10-29T01:07:43;10.32;;;6.75;;
19889;SDS011;10107;51.198;6.824;2022-10-29T01:11:47;11.48;;;6.93;;
19889;SDS011;10107;51.198;6.824;2022-10-29T01:16:09;11.35;;;6.50;;
19889;SDS011;10107;51.198;6.824;2022-10-29T01:20:28;11.55;;;6.63;;
19889;SDS011;10107;51.198;6.824;2022-10-29T01:24:51;9.73;;;6.45;;
19889;SDS011;10107;51.198;6.824;2022-10-29T01:29:09;9.43;;;6.20;;
19889;SDS011;10107;51.198;6.824;2022-10-29T01:33:24;9.95;;;6.00;;
19889;SDS011;10107;51.198;6.824;2022-10-29T01:37:33;10.68;;;6.32;;
19889;SDS011;10107;51.198;6.824;2022-10-29T01:41:44;9.45;;;6.03;;
19889;SDS011;10107;51.198;6.824;2022-10-29T01:45:53;8.98;;;6.10;;
19889;SDS011;10107;51.198;6.824;2022-10-29T01:50:02;12.40;;;6.30;;
19889;SDS011;10107;51.198;6.824;2022-10-29T01:54:09;10.13;;;5.85;;
19889;SDS011;10107;51.198;6.824;2022-10-29T01:58:11;8.13;;;5.72;;
19889;SDS011;10107;51.198;6.824;2022-10-29T02:02:14;10.75;;;6.47;;
19889;SDS011;10107;51.198;6.824;2022-10-29T02:06:29;10.18;;;5.85;;
19889;SDS011;10107;51.198;6.824;2022-10-29T02:10:37;7.80;;;5.45;;
19889;SDS011;10107;51.198;6.824;2022-10-29T02:14:48;9.15;;;6.22;;
19889;SDS011;10107;51.198;6.824;2022-10-29T02:18:54;10.77;;;5.93;;
19889;SDS011;10107;51.198;6.824;2022-10-29T02:22:58;7.00;;;5.53;;
19889;SDS011;10107;51.198;6.824;2022-10-29T02:27:00;8.65;;;5.68;;
19889;SDS011;10107;51.198;6.824;2022-10-29T02:31:02;10.45;;;6.05;;
19889;SDS011;10107;51.198;6.824;2022-10-29T02:35:04;10.95;;;6.30;;
19889;SDS011;10107;51.198;6.824;2022-10-29T02:39:08;8.82;;;6.15;;
19889;SDS011;10107;51.198;6.824;2022-10-29T02:43:10;6.75;;;3.75;;
19889;SDS011;10107;51.198;6.824;2022-10-29T02:47:12;11.98;;;5.70;;
19889;SDS011;10107;51.198;6.824;2022-10-29T02:51:14;8.45;;;5.50;;
19889;SDS011;10107;51.198;6.824;2022-10-29T02:55:18;10.93;;;6.00;;
19889;SDS011;10107;51.198;6.824;2022-10-29T02:59:20;7.45;;;5.35;;
19889;SDS011;10107;51.198;6.824;2022-10-29T03:03:22;9.02;;;5.75;;
19889;SDS011;10107;51.198;6.824;2022-10-29T03:07:24;10.82;;;5.97;;
19889;SDS011;10107;51.198;6.824;2022-10-29T03:11:27;9.23;;;5.93;;
19889;SDS011;10107;51.198;6.824;2022-10-29T03:15:29;8.43;;;6.18;;
19889;SDS011;10107;51.198;6.824;2022-10-29T03:19:31;10.52;;;6.30;;
19889;SDS011;10107;51.198;6.824;2022-10-29T03:23:33;9.88;;;6.50;;
19889;SDS011;10107;51.198;6.824;2022-10-29T03:27:40;8.77;;;5.78;;
19889;SDS011;10107;51.198;6.824;2022-10-29T03:31:42;12.68;;;6.60;;
19889;SDS011;10107;51.198;6.824;2022-10-29T03:35:44;11.40;;;6.50;;
19889;SDS011;10107;51.198;6.824;2022-10-29T03:39:46;9.23;;;5.82;;
19889;SDS011;10107;51.198;6.824;2022-10-29T03:43:49;9.82;;;6.35;;
19889;SDS011;10107;51.198;6.824;2022-10-29T03:47:51;9.10;;;6.13;;
19889;SDS011;10107;51.198;6.824;2022-10-29T03:51:53;9.82;;;6.22;;
19889;SDS011;10107;51.198;6.824;2022-10-29T03:55:55;10.13;;;6.80;;
19889;SDS011;10107;51.198;6.824;2022-10-29T03:59:58;9.20;;;5.78;;
19889;SDS011;10107;51.198;6.824;2022-10-29T04:04:01;11.40;;;6.38;;
19889;SDS011;10107;51.198;6.824;2022-10-29T04:08:04;10.90;;;6.43;;
19889;SDS011;10107;51.198;6.824;2022-10-29T04:12:06;8.70;;;6.35;;
19889;SDS011;10107;51.198;6.824;2022-10-29T04:16:10;12.53;;;6.50;;
19889;SDS011;10107;51.198;6.824;2022-10-29T04:20:11;12.00;;;5.47;;
19889;SDS011;10107;51.198;6.824;2022-10-29T04:24:13;11.85;;;6.55;;
19889;SDS011;10107;51.198;6.824;2022-10-29T04:28:15;10.57;;;6.13;;
19889;SDS011;10107;51.198;6.824;2022-10-29T04:32:18;13.82;;;6.97;;
19889;SDS011;10107;51.198;6.824;2022-10-29T04:36:20;7.20;;;4.38;;
19889;SDS011;10107;51.198;6.824;2022-10-29T04:40:22;10.50;;;6.65;;
19889;SDS011;10107;51.198;6.824;2022-10-29T04:44:24;12.60;;;7.57;;
19889;SDS011;10107;51.198;6.824;2022-10-29T04:48:27;12.75;;;7.32;;
19889;SDS011;10107;51.198;6.824;2022-10-29T04:52:29;13.52;;;7.10;;
19889;SDS011;10107;51.198;6.824;2022-10-29T04:56:31;11.07;;;6.28;;
19889;SDS011;10107;51.198;6.824;2022-10-29T05:00:33;9.40;;;5.45;;
19889;SDS011;10107;51.198;6.824;2022-10-29T05:04:36;8.68;;;5.40;;
19889;SDS011;10107;51.198;6.824;2022-10-29T05:08:37;11.93;;;6.70;;
19889;SDS011;10107;51.198;6.824;2022-10-29T05:12:39;12.00;;;5.95;;
19889;SDS011;10107;51.198;6.824;2022-10-29T05:16:41;9.45;;;5.32;;
19889;SDS011;10107;51.198;6.824;2022-10-29T05:20:44;9.93;;;5.43;;
19889;SDS011;10107;51.198;6.824;2022-10-29T05:24:46;12.45;;;6.13;;
19889;SDS011;10107;51.198;6.824;2022-10-29T05:28:48;8.77;;;4.82;;
19889;SDS011;10107;51.198;6.824;2022-10-29T05:32:50;8.85;;;4.97;;
19889;SDS011;10107;51.198;6.824;2022-10-29T05:36:53;7.93;;;5.00;;
19889;SDS011;10107;51.198;6.824;2022-10-29T05:40:56;7.95;;;5.05;;
19889;SDS011;10107;51.198;6.824;2022-10-29T05:44:58;7.00;;;4.80;;
19889;SDS011;10107;51.198;6.824;2022-10-29T05:48:59;7.75;;;4.97;;
19889;SDS011;10107;51.198;6.824;2022-10-29T05:53:04;8.65;;;5.28;;
19889;SDS011;10107;51.198;6.824;2022-10-29T05:57:07;8.07;;;4.85;;
19889;SDS011;10107;51.198;6.824;2022-10-29T06:01:08;7.47;;;5.10;;
19889;SDS011;10107;51.198;6.824;2022-10-29T06:05:11;12.00;;;6.40;;
19889;SDS011;10107;51.198;6.824;2022-10-29T06:09:14;11.15;;;6.00;;
19889;SDS011;10107;51.198;6.824;2022-10-29T06:13:16;8.47;;;4.53;;
19889;SDS011;10107;51.198;6.824;2022-10-29T06:17:19;8.55;;;6.05;;
19889;SDS011;10107;51.198;6.824;2022-10-29T06:21:20;15.18;;;6.75;;
19889;SDS011;10107;51.198;6.824;2022-10-29T06:25:23;14.65;;;6.20;;
19889;SDS011;10107;51.198;6.824;2022-10-29T06:33:27;10.02;;;5.72;;
19889;SDS011;10107;51.198;6.824;2022-10-29T06:37:29;11.70;;;6.18;;
19889;SDS011;10107;51.198;6.824;2022-10-29T06:41:33;9.63;;;4.65;;
19889;SDS011;10107;51.198;6.824;2022-10-29T06:45:35;8.43;;;4.20;;
19889;SDS011;10107;51.198;6.824;2022-10-29T06:49:37;9.50;;;5.05;;
19889;SDS011;10107;51.198;6.824;2022-10-29T06:53:38;7.72;;;5.28;;
19889;SDS011;10107;51.198;6.824;2022-10-29T06:57:41;11.57;;;5.82;;
19889;SDS011;10107;51.198;6.824;2022-10-29T07:01:43;8.23;;;4.80;;
19889;SDS011;10107;51.198;6.824;2022-10-29T07:05:45;9.38;;;5.70;;
19889;SDS011;10107;51.198;6.824;2022-10-29T07:09:47;14.90;;;6.68;;
19889;SDS011;10107;51.198;6.824;2022-10-29T07:13:50;11.38;;;5.80;;
19889;SDS011;10107;51.198;6.824;2022-10-29T07:17:56;15.93;;;5.80;;
19889;SDS011;10107;51.198;6.824;2022-10-29T07:21:59;15.00;;;6.40;;
19889;SDS011;10107;51.198;6.824;2022-10-29T07:26:00;11.20;;;5.63;;
19889;SDS011;10107;51.198;6.824;2022-10-29T07:30:04;12.20;;;5.93;;
19889;SDS011;10107;51.198;6.824;2022-10-29T07:34:06;10.93;;;5.65;;
19889;SDS011;10107;51.198;6.824;2022-10-29T07:38:08;12.40;;;6.07;;
19889;SDS011;10107;51.198;6.824;2022-10-29T07:42:11;13.73;;;5.43;;
19889;SDS011;10107;51.198;6.824;2022-10-29T07:46:13;12.95;;;5.95;;
19889;SDS011;10107;51.198;6.824;2022-10-29T07:50:15;16.07;;;5.17;;
19889;SDS011;10107;51.198;6.824;2022-10-29T07:54:17;12.35;;;5.07;;
19889;SDS011;10107;51.198;6.824;2022-10-29T07:58:19;11.55;;;5.35;;
19889;SDS011;10107;51.198;6.824;2022-10-29T08:02:22;17.65;;;6.18;;
19889;SDS011;10107;51.198;6.824;2022-10-29T08:06:23;10.80;;;5.30;;
19889;SDS011;10107;51.198;6.824;2022-10-29T08:10:25;9.48;;;5.30;;
19889;SDS011;10107;51.198;6.824;2022-10-29T08:14:27;15.23;;;5.75;;
19889;SDS011;10107;51.198;6.824;2022-10-29T08:18:30;14.48;;;5.57;;
19889;SDS011;10107;51.198;6.824;2022-10-29T08:22:32;11.40;;;5.80;;
19889;SDS011;10107;51.198;6.824;2022-10-29T08:26:33;16.70;;;5.80;;
19889;SDS011;10107;51.198;6.824;2022-10-29T08:30:35;13.20;;;5.55;;
19889;SDS011;10107;51.198;6.824;2022-10-29T08:34:39;15.23;;;5.70;;
19889;SDS011;10107;51.198;6.824;2022-10-29T08:38:40;13.40;;;5.63;;
19889;SDS011;10107;51.198;6.824;2022-10-29T08:42:44;14.90;;;5.80;;
19889;SDS011;10107;51.198;6.824;2022-10-29T08:47:00;12.27;;;5.05;;
19889;SDS011;10107;51.198;6.824;2022-10-29T08:51:13;13.05;;;5.80;;
19889;SDS011;10107;51.198;6.824;2022-10-29T08:55:21;16.73;;;5.68;;
19889;SDS011;10107;51.198;6.824;2022-10-29T08:59:34;11.33;;;4.77;;
19889;SDS011;10107;51.198;6.824;2022-10-29T09:03:40;14.82;;;4.78;;
19889;SDS011;10107;51.198;6.824;2022-10-29T09:07:47;10.30;;;4.40;;
19889;SDS011;10107;51.198;6.824;2022-10-29T09:12:12;12.10;;;5.25;;
19889;SDS011;10107;51.198;6.824;2022-10-29T09:16:27;9.85;;;5.03;;
19889;SDS011;10107;51.198;6.824;2022-10-29T09:20:44;10.85;;;4.60;;
19889;SDS011;10107;51.198;6.824;2022-10-29T09:24:55;9.73;;;4.40;;
19889;SDS011;10107;51.198;6.824;2022-10-29T09:29:14;13.77;;;4.25;;
19889;SDS011;10107;51.198;6.824;2022-10-29T09:33:28;11.02;;;4.10;;
19889;SDS011;10107;51.198;6.824;2022-10-29T09:37:33;13.93;;;4.78;;
19889;SDS011;10107;51.198;6.824;2022-10-29T09:41:41;11.95;;;4.60;;
19889;SDS011;10107;51.198;6.824;2022-10-29T09:45:45;12.20;;;4.47;;
19889;SDS011;10107;51.198;6.824;2022-10-29T09:49:54;11.32;;;4.97;;
19889;SDS011;10107;51.198;6.824;2022-10-29T09:54:06;9.63;;;4.55;;
19889;SDS011;10107;51.198;6.824;2022-10-29T09:58:10;12.38;;;4.97;;
19889;SDS011;10107;51.198;6.824;2022-10-29T10:02:22;13.18;;;5.10;;
19889;SDS011;10107;51.198;6.824;2022-10-29T10:06:28;9.35;;;4.60;;
19889;SDS011;10107;51.198;6.824;2022-10-29T10:10:56;12.73;;;5.07;;
19889;SDS011;10107;51.198;6.824;2022-10-29T10:15:03;13.43;;;5.18;;
19889;SDS011;10107;51.198;6.824;2022-10-29T10:19:19;14.88;;;5.30;;
19889;SDS011;10107;51.198;6.824;2022-10-29T10:23:24;12.68;;;5.00;;
19889;SDS011;10107;51.198;6.824;2022-10-29T10:27:29;10.95;;;4.63;;
19889;SDS011;10107;51.198;6.824;2022-10-29T10:31:32;13.52;;;4.80;;
19889;SDS011;10107;51.198;6.824;2022-10-29T10:35:34;13.63;;;5.37;;
19889;SDS011;10107;51.198;6.824;2022-10-29T10:39:36;13.50;;;5.10;;
19889;SDS011;10107;51.198;6.824;2022-10-29T10:43:40;14.10;;;5.07;;
19889;SDS011;10107;51.198;6.824;2022-10-29T10:47:46;8.15;;;3.97;;
19889;SDS011;10107;51.198;6.824;2022-10-29T10:51:50;10.85;;;4.50;;
19889;SDS011;10107;51.198;6.824;2022-10-29T10:55:56;12.60;;;4.97;;
19889;SDS011;10107;51.198;6.824;2022-10-29T10:59:59;10.10;;;4.63;;
19889;SDS011;10107;51.198;6.824;2022-10-29T11:04:10;14.43;;;4.82;;
19889;SDS011;10107;51.198;6.824;2022-10-29T11:08:17;14.80;;;5.63;;
19889;SDS011;10107;51.198;6.824;2022-10-29T11:12:24;10.90;;;5.32;;
19889;SDS011;10107;51.198;6.824;2022-10-29T11:16:33;11.40;;;4.53;;
19889;SDS011;10107;51.198;6.824;2022-10-29T11:20:42;13.60;;;4.57;;
19889;SDS011;10107;51.198;6.824;2022-10-29T11:24:50;9.60;;;4.75;;
19889;SDS011;10107;51.198;6.824;2022-10-29T11:28:57;16.20;;;4.55;;
19889;SDS011;10107;51.198;6.824;2022-10-29T11:33:04;11.82;;;3.95;;
19889;SDS011;10107;51.198;6.824;2022-10-29T11:37:19;12.10;;;4.50;;
19889;SDS011;10107;51.198;6.824;2022-10-29T11:41:25;13.82;;;5.07;;
19889;SDS011;10107;51.198;6.824;2022-10-29T11:45:34;9.23;;;4.20;;
19889;SDS011;10107;51.198;6.824;2022-10-29T11:49:44;9.73;;;4.20;;
19889;SDS011;10107;51.198;6.824;2022-10-29T11:53:59;11.65;;;4.65;;
19889;SDS011;10107;51.198;6.824;2022-10-29T11:58:07;12.05;;;4.68;;
19889;SDS011;10107;51.198;6.824;2022-10-29T12:02:21;10.55;;;5.00;;
19889;SDS011;10107;51.198;6.824;2022-10-29T12:06:34;12.43;;;4.65;;
19889;SDS011;10107;51.198;6.824;2022-10-29T12:10:46;9.60;;;4.70;;
19889;SDS011;10107;51.198;6.824;2022-10-29T12:14:55;9.50;;;3.95;;
19889;SDS011;10107;51.198;6.824;2022-10-29T12:19:08;9.32;;;4.05;;
19889;SDS011;10107;51.198;6.824;2022-10-29T12:23:21;9.07;;;4.13;;
19889;SDS011;10107;51.198;6.824;2022-10-29T12:27:36;10.05;;;4.00;;
19889;SDS011;10107;51.198;6.824;2022-10-29T12:31:47;10.07;;;4.10;;
19889;SDS011;10107;51.198;6.824;2022-10-29T12:35:56;9.27;;;4.13;;
19889;SDS011;10107;51.198;6.824;2022-10-29T12:40:07;15.60;;;4.45;;
19889;SDS011;10107;51.198;6.824;2022-10-29T12:44:21;11.13;;;4.07;;
19889;SDS011;10107;51.198;6.824;2022-10-29T12:48:29;9.35;;;4.35;;
19889;SDS011;10107;51.198;6.824;2022-10-29T12:52:40;11.55;;;4.60;;
19889;SDS011;10107;51.198;6.824;2022-10-29T12:56:45;12.32;;;4.80;;
19889;SDS011;10107;51.198;6.824;2022-10-29T13:00:49;9.68;;;4.20;;
19889;SDS011;10107;51.198;6.824;2022-10-29T13:09:17;10.05;;;4.28;;
19889;SDS011;10107;51.198;6.824;2022-10-29T13:13:25;8.02;;;4.32;;
19889;SDS011;10107;51.198;6.824;2022-10-29T13:17:38;8.55;;;4.20;;
19889;SDS011;10107;51.198;6.824;2022-10-29T13:21:53;11.27;;;4.30;;
19889;SDS011;10107;51.198;6.824;2022-10-29T13:25:56;12.15;;;4.50;;
19889;SDS011;10107;51.198;6.824;2022-10-29T13:30:20;10.20;;;4.00;;
19889;SDS011;10107;51.198;6.824;2022-10-29T13:38:59;14.52;;;5.55;;
19889;SDS011;10107;51.198;6.824;2022-10-29T13:43:03;8.93;;;4.05;;
19889;SDS011;10107;51.198;6.824;2022-10-29T13:47:13;9.43;;;4.22;;
19889;SDS011;10107;51.198;6.824;2022-10-29T13:51:23;12.00;;;4.20;;
19889;SDS011;10107;51.198;6.824;2022-10-29T13:55:30;8.10;;;4.05;;
19889;SDS011;10107;51.198;6.824;2022-10-29T13:59:34;12.27;;;4.40;;
19889;SDS011;10107;51.198;6.824;2022-10-29T14:03:45;8.60;;;4.22;;
19889;SDS011;10107;51.198;6.824;2022-10-29T14:08:00;10.27;;;4.60;;
19889;SDS011;10107;51.198;6.824;2022-10-29T14:12:08;10.95;;;4.70;;
19889;SDS011;10107;51.198;6.824;2022-10-29T14:16:13;11.57;;;4.15;;
19889;SDS011;10107;51.198;6.824;2022-10-29T14:20:20;12.18;;;4.47;;
19889;SDS011;10107;51.198;6.824;2022-10-29T14:24:25;11.13;;;4.60;;
19889;SDS011;10107;51.198;6.824;2022-10-29T14:28:27;12.90;;;4.20;;
19889;SDS011;10107;51.198;6.824;2022-10-29T14:32:29;8.05;;;3.75;;
19889;SDS011;10107;51.198;6.824;2022-10-29T14:36:32;10.18;;;4.07;;
19889;SDS011;10107;51.198;6.824;2022-10-29T14:40:40;9.55;;;3.95;;
19889;SDS011;10107;51.198;6.824;2022-10-29T14:44:45;10.35;;;4.30;;
19889;SDS011;10107;51.198;6.824;2022-10-29T14:48:54;10.73;;;4.30;;
19889;SDS011;10107;51.198;6.824;2022-10-29T14:53:00;8.73;;;4.20;;
19889;SDS011;10107;51.198;6.824;2022-10-29T14:57:08;10.45;;;3.85;;
19889;SDS011;10107;51.198;6.824;2022-10-29T15:01:14;11.00;;;4.05;;
19889;SDS011;10107;51.198;6.824;2022-10-29T15:05:21;9.32;;;4.00;;
19889;SDS011;10107;51.198;6.824;2022-10-29T15:09:25;11.02;;;3.95;;
19889;SDS011;10107;51.198;6.824;2022-10-29T15:13:30;9.03;;;3.83;;
19889;SDS011;10107;51.198;6.824;2022-10-29T15:17:34;10.20;;;4.43;;
19889;SDS011;10107;51.198;6.824;2022-10-29T15:21:38;9.65;;;4.38;;
19889;SDS011;10107;51.198;6.824;2022-10-29T15:25:40;9.30;;;3.40;;
19889;SDS011;10107;51.198;6.824;2022-10-29T15:29:48;16.15;;;4.75;;
19889;SDS011;10107;51.198;6.824;2022-10-29T15:33:50;10.18;;;4.68;;
19889;SDS011;10107;51.198;6.824;2022-10-29T15:41:57;11.48;;;4.43;;
19889;SDS011;10107;51.198;6.824;2022-10-29T15:46:01;12.63;;;5.57;;
19889;SDS011;10107;51.198;6.824;2022-10-29T15:50:05;12.80;;;5.50;;
19889;SDS011;10107;51.198;6.824;2022-10-29T15:54:10;9.15;;;5.07;;
19889;SDS011;10107;51.198;6.824;2022-10-29T15:58:14;9.65;;;5.15;;
19889;SDS011;10107;51.198;6.824;2022-10-29T16:02:19;12.70;;;5.10;;
19889;SDS011;10107;51.198;6.824;2022-10-29T16:06:21;10.25;;;4.70;;
19889;SDS011;10107;51.198;6.824;2022-10-29T16:10:23;12.77;;;5.20;;
19889;SDS011;10107;51.198;6.824;2022-10-29T16:14:25;11.05;;;5.15;;
19889;SDS011;10107;51.198;6.824;2022-10-29T16:18:28;10.77;;;4.93;;
19889;SDS011;10107;51.198;6.824;2022-10-29T16:22:29;11.15;;;3.45;;
19889;SDS011;10107;51.198;6.824;2022-10-29T16:26:31;9.88;;;4.85;;
19889;SDS011;10107;51.198;6.824;2022-10-29T16:30:33;11.02;;;5.10;;
19889;SDS011;10107;51.198;6.824;2022-10-29T16:34:36;16.45;;;5.72;;
19889;SDS011;10107;51.198;6.824;2022-10-29T16:38:37;9.70;;;3.30;;
19889;SDS011;10107;51.198;6.824;2022-10-29T16:42:39;13.32;;;5.28;;
19889;SDS011;10107;51.198;6.824;2022-10-29T16:46:41;11.73;;;5.70;;
19889;SDS011;10107;51.198;6.824;2022-10-29T16:50:44;13.60;;;5.72;;
19889;SDS011;10107;51.198;6.824;2022-10-29T16:54:45;12.17;;;5.40;;
19889;SDS011;10107;51.198;6.824;2022-10-29T16:58:47;12.50;;;6.38;;
19889;SDS011;10107;51.198;6.824;2022-10-29T17:02:49;12.95;;;5.18;;
19889;SDS011;10107;51.198;6.824;2022-10-29T17:06:52;11.10;;;5.13;;
19889;SDS011;10107;51.198;6.824;2022-10-29T17:10:56;9.05;;;5.18;;
19889;SDS011;10107;51.198;6.824;2022-10-29T17:14:58;14.68;;;5.65;;
19889;SDS011;10107;51.198;6.824;2022-10-29T17:18:59;10.25;;;5.45;;
19889;SDS011;10107;51.198;6.824;2022-10-29T17:23:02;10.43;;;5.55;;
19889;SDS011;10107;51.198;6.824;2022-10-29T17:27:04;11.67;;;5.33;;
19889;SDS011;10107;51.198;6.824;2022-10-29T17:31:06;14.60;;;5.05;;
19889;SDS011;10107;51.198;6.824;2022-10-29T17:35:08;12.40;;;5.40;;
19889;SDS011;10107;51.198;6.824;2022-10-29T17:39:11;10.70;;;5.20;;
19889;SDS011;10107;51.198;6.824;2022-10-29T17:43:13;14.03;;;5.63;;
19889;SDS011;10107;51.198;6.824;2022-10-29T17:47:15;15.48;;;6.75;;
19889;SDS011;10107;51.198;6.824;2022-10-29T17:51:16;8.77;;;5.50;;
19889;SDS011;10107;51.198;6.824;2022-10-29T17:55:19;12.15;;;6.03;;
19889;SDS011;10107;51.198;6.824;2022-10-29T17:59:21;11.05;;;4.18;;
19889;SDS011;10107;51.198;6.824;2022-10-29T18:03:23;8.23;;;5.50;;
19889;SDS011;10107;51.198;6.824;2022-10-29T18:07:25;10.80;;;5.70;;
19889;SDS011;10107;51.198;6.824;2022-10-29T18:11:29;8.60;;;5.22;;
19889;SDS011;10107;51.198;6.824;2022-10-29T18:15:31;9.90;;;5.25;;
19889;SDS011;10107;51.198;6.824;2022-10-29T18:19:32;8.18;;;5.05;;
19889;SDS011;10107;51.198;6.824;2022-10-29T18:23:36;7.23;;;4.73;;
19889;SDS011;10107;51.198;6.824;2022-10-29T18:27:39;5.43;;;3.27;;
19889;SDS011;10107;51.198;6.824;2022-10-29T18:31:41;7.60;;;4.17;;
19889;SDS011;10107;51.198;6.824;2022-10-29T18:35:44;11.80;;;4.88;;
19889;SDS011;10107;51.198;6.824;2022-10-29T18:39:46;9.98;;;5.03;;
19889;SDS011;10107;51.198;6.824;2022-10-29T18:43:49;10.68;;;4.80;;
19889;SDS011;10107;51.198;6.824;2022-10-29T18:47:51;11.90;;;5.63;;
19889;SDS011;10107;51.198;6.824;2022-10-29T18:51:53;10.52;;;5.25;;
19889;SDS011;10107;51.198;6.824;2022-10-29T18:55:55;9.98;;;5.63;;
19889;SDS011;10107;51.198;6.824;2022-10-29T18:59:58;11.07;;;5.55;;
19889;SDS011;10107;51.198;6.824;2022-10-29T19:04:03;12.60;;;5.53;;
19889;SDS011;10107;51.198;6.824;2022-10-29T19:08:09;13.13;;;6.03;;
19889;SDS011;10107;51.198;6.824;2022-10-29T19:12:11;12.30;;;5.85;;
19889;SDS011;10107;51.198;6.824;2022-10-29T19:16:15;10.23;;;5.00;;
19889;SDS011;10107;51.198;6.824;2022-10-29T19:20:16;14.23;;;5.32;;
19889;SDS011;10107;51.198;6.824;2022-10-29T19:24:18;12.80;;;5.75;;
19889;SDS011;10107;51.198;6.824;2022-10-29T19:28:20;9.20;;;5.40;;
19889;SDS011;10107;51.198;6.824;2022-10-29T19:32:23;13.18;;;5.30;;
19889;SDS011;10107;51.198;6.824;2022-10-29T19:36:25;11.73;;;5.20;;
19889;SDS011;10107;51.198;6.824;2022-10-29T19:40:28;9.17;;;4.80;;
19889;SDS011;10107;51.198;6.824;2022-10-29T19:44:30;12.07;;;4.82;;
19889;SDS011;10107;51.198;6.824;2022-10-29T19:48:33;9.88;;;5.13;;
19889;SDS011;10107;51.198;6.824;2022-10-29T19:52:35;12.05;;;5.20;;
19889;SDS011;10107;51.198;6.824;2022-10-29T19:56:37;10.75;;;5.18;;
19889;SDS011;10107;51.198;6.824;2022-10-29T20:00:38;10.32;;;4.93;;
19889;SDS011;10107;51.198;6.824;2022-10-29T20:04:42;10.32;;;5.30;;
19889;SDS011;10107;51.198;6.824;2022-10-29T20:08:43;6.67;;;3.80;;
19889;SDS011;10107;51.198;6.824;2022-10-29T20:12:45;9.68;;;5.38;;
19889;SDS011;10107;51.198;6.824;2022-10-29T20:16:47;8.60;;;4.78;;
19889;SDS011;10107;51.198;6.824;2022-10-29T20:20:53;8.70;;;5.32;;
19889;SDS011;10107;51.198;6.824;2022-10-29T20:24:55;9.98;;;5.47;;
19889;SDS011;10107;51.198;6.824;2022-10-29T20:28:57;10.73;;;4.95;;
19889;SDS011;10107;51.198;6.824;2022-10-29T20:32:59;9.80;;;4.78;;
19889;SDS011;10107;51.198;6.824;2022-10-29T20:37:02;9.88;;;4.95;;
19889;SDS011;10107;51.198;6.824;2022-10-29T20:41:04;10.32;;;5.15;;
19889;SDS011;10107;51.198;6.824;2022-10-29T20:45:06;7.78;;;5.00;;
19889;SDS011;10107;51.198;6.824;2022-10-29T20:49:08;10.93;;;4.85;;
19889;SDS011;10107;51.198;6.824;2022-10-29T20:53:11;10.45;;;5.05;;
19889;SDS011;10107;51.198;6.824;2022-10-29T20:57:13;9.50;;;4.90;;
19889;SDS011;10107;51.198;6.824;2022-10-29T21:01:16;7.28;;;4.68;;
19889;SDS011;10107;51.198;6.824;2022-10-29T21:05:18;10.85;;;5.47;;
19889;SDS011;10107;51.198;6.824;2022-10-29T21:09:21;12.07;;;5.07;;
19889;SDS011;10107;51.198;6.824;2022-10-29T21:13:23;11.40;;;5.57;;
19889;SDS011;10107;51.198;6.824;2022-10-29T21:17:25;8.15;;;4.93;;
19889;SDS011;10107;51.198;6.824;2022-10-29T21:21:27;7.93;;;4.32;;
19889;SDS011;10107;51.198;6.824;2022-10-29T21:25:33;7.80;;;4.72;;
19889;SDS011;10107;51.198;6.824;2022-10-29T21:29:35;7.50;;;4.28;;
19889;SDS011;10107;51.198;6.824;2022-10-29T21:33:37;10.48;;;5.10;;
19889;SDS011;10107;51.198;6.824;2022-10-29T21:37:39;9.32;;;5.07;;
19889;SDS011;10107;51.198;6.824;2022-10-29T21:41:42;10.93;;;5.78;;
19889;SDS011;10107;51.198;6.824;2022-10-29T21:45:44;9.95;;;5.13;;
19889;SDS011;10107;51.198;6.824;2022-10-29T21:49:48;9.48;;;5.15;;
19889;SDS011;10107;51.198;6.824;2022-10-29T21:53:50;10.30;;;4.85;;
19889;SDS011;10107;51.198;6.824;2022-10-29T21:57:53;9.15;;;4.68;;
19889;SDS011;10107;51.198;6.824;2022-10-29T22:01:54;10.37;;;5.37;;
19889;SDS011;10107;51.198;6.824;2022-10-29T22:06:02;10.10;;;4.32;;
19889;SDS011;10107;51.198;6.824;2022-10-29T22:10:06;7.57;;;4.32;;
19889;SDS011;10107;51.198;6.824;2022-10-29T22:14:10;11.73;;;4.80;;
19889;SDS011;10107;51.198;6.824;2022-10-29T22:18:12;5.10;;;3.13;;
19889;SDS011;10107;51.198;6.824;2022-10-29T22:22:14;6.85;;;4.55;;
19889;SDS011;10107;51.198;6.824;2022-10-29T22:26:17;9.52;;;4.47;;
19889;SDS011;10107;51.198;6.824;2022-10-29T22:30:23;8.52;;;4.30;;
19889;SDS011;10107;51.198;6.824;2022-10-29T22:34:26;10.38;;;4.45;;
19889;SDS011;10107;51.198;6.824;2022-10-29T22:38:28;7.15;;;4.53;;
19889;SDS011;10107;51.198;6.824;2022-10-29T22:42:30;8.52;;;4.32;;
19889;SDS011;10107;51.198;6.824;2022-10-29T22:46:33;6.55;;;4.55;;
19889;SDS011;10107;51.198;6.824;2022-10-29T22:50:35;8.40;;;4.35;;
19889;SDS011;10107;51.198;6.824;2022-10-29T22:54:37;8.40;;;5.05;;
19889;SDS011;10107;51.198;6.824;2022-10-29T22:58:38;8.20;;;4.95;;
19889;SDS011;10107;51.198;6.824;2022-10-29T23:02:42;7.18;;;4.57;;
19889;SDS011;10107;51.198;6.824;2022-10-29T23:06:43;8.97;;;4.70;;
19889;SDS011;10107;51.198;6.824;2022-10-29T23:10:46;7.45;;;5.03;;
19889;SDS011;10107;51.198;6.824;2022-10-29T23:14:48;7.68;;;4.63;;
19889;SDS011;10107;51.198;6.824;2022-10-29T23:18:52;9.15;;;4.80;;
19889;SDS011;10107;51.198;6.824;2022-10-29T23:22:55;7.72;;;4.28;;
19889;SDS011;10107;51.198;6.824;2022-10-29T23:26:57;9.93;;;5.00;;
19889;SDS011;10107;51.198;6.824;2022-10-29T23:30:59;5.82;;;4.40;;
19889;SDS011;10107;51.198;6.824;2022-10-29T23:35:04;8.48;;;5.07;;
19889;SDS011;10107;51.198;6.824;2022-10-29T23:39:07;11.25;;;5.18;;
19889;SDS011;10107;51.198;6.824;2022-10-29T23:43:10;10.07;;;5.22;;
19889;SDS011;10107;51.198;6.824;2022-10-29T23:47:11;12.07;;;5.10;;
19889;SDS011;10107;51.198;6.824;2022-10-29T23:51:14;8.02;;;3.92;;
19889;SDS011;10107;51.198;6.824;2022-10-29T23:55:16;7.47;;;4.63;;
19889;SDS011;10107;51.198;6.824;2022-10-29T23:59:18;6.70;;;4.32;;
